Time;durP1;ratioP1;P1;durP2;ratioP2;P2;SDS_P1;SDS_P2;PMS_P1;PMS_P2;Temp;Humidity;BMP_temperature;BMP_pressure;BME280_temperature;BME280_humidity;BME280_pressure;Samples;Min_cycle;Max_cycle;Signal;HPM_P1;HPM_P2
2023/01/01 00:01:39;;;;;;;10.40;6.23;;;17.20;99.90;;;;;;5051103;28;20434;-74
2023/01/01 00:04:10;;;;;;;10.10;5.73;;;17.30;99.90;;;;;;5047433;28;20453;-74
2023/01/01 00:06:37;;;;;;;8.30;4.90;;;17.30;99.90;;;;;;5041601;28;21035;-74
2023/01/01 00:11:50;;;;;;;6.53;4.70;;;17.30;99.90;;;;;;5044555;28;20475;-74
2023/01/01 00:14:19;;;;;;;9.93;6.57;;;17.20;99.90;;;;;;5044731;28;20549;-74
2023/01/01 00:16:46;;;;;;;13.60;4.63;;;17.20;99.90;;;;;;5047344;28;20458;-74
2023/01/01 00:19:13;;;;;;;7.03;5.30;;;17.20;99.90;;;;;;5044240;28;20563;-74
2023/01/01 00:21:41;;;;;;;16.33;5.30;;;17.20;99.90;;;;;;5045438;28;20562;-75
2023/01/01 00:24:08;;;;;;;12.20;8.23;;;17.30;99.90;;;;;;5043052;28;20521;-75
2023/01/01 00:26:38;;;;;;;18.07;8.47;;;17.30;99.90;;;;;;5041718;28;20493;-74
2023/01/01 00:29:08;;;;;;;4.93;4.53;;;17.30;99.90;;;;;;5047225;28;20547;-74
2023/01/01 00:31:38;;;;;;;7.90;6.90;;;17.20;99.90;;;;;;5051833;28;20459;-75
2023/01/01 00:34:05;;;;;;;10.07;6.80;;;17.20;99.90;;;;;;5043638;28;20456;-74
2023/01/01 00:36:32;;;;;;;8.07;5.40;;;17.30;99.90;;;;;;5036394;28;20484;-75
2023/01/01 00:39:01;;;;;;;5.53;4.90;;;17.20;99.90;;;;;;5044623;28;20525;-75
2023/01/01 00:41:29;;;;;;;7.40;5.83;;;17.30;99.90;;;;;;5049996;28;20493;-75
2023/01/01 00:43:56;;;;;;;12.07;6.73;;;17.20;99.90;;;;;;5044645;28;20483;-74
2023/01/01 00:46:23;;;;;;;6.53;4.60;;;17.20;99.90;;;;;;5044260;28;20493;-75
2023/01/01 00:48:53;;;;;;;8.60;6.37;;;17.10;99.90;;;;;;5040095;28;20579;-74
2023/01/01 00:51:20;;;;;;;17.90;5.80;;;17.00;99.90;;;;;;5039715;28;20543;-75
2023/01/01 00:53:47;;;;;;;8.27;7.43;;;17.00;99.90;;;;;;5047465;28;20482;-75
2023/01/01 00:56:14;;;;;;;14.07;7.00;;;16.90;99.90;;;;;;5041376;28;20575;-75
2023/01/01 00:58:41;;;;;;;14.60;7.80;;;16.90;99.90;;;;;;5052298;28;20942;-75
2023/01/01 01:01:08;;;;;;;14.23;8.37;;;16.90;99.90;;;;;;5044573;28;20551;-75
2023/01/01 01:03:37;;;;;;;13.90;7.50;;;17.00;99.90;;;;;;5045077;28;20467;-75
2023/01/01 01:06:12;;;;;;;14.27;9.33;;;17.00;99.90;;;;;;5043735;28;20479;-75
2023/01/01 01:08:41;;;;;;;27.90;9.37;;;17.00;99.90;;;;;;5047221;28;20485;-75
2023/01/01 01:11:12;;;;;;;10.50;8.20;;;17.00;99.90;;;;;;5048328;28;20459;-75
2023/01/01 01:13:42;;;;;;;14.20;9.03;;;16.90;99.90;;;;;;5066601;28;20478;-75
2023/01/01 01:16:11;;;;;;;16.20;8.07;;;16.90;99.90;;;;;;5048090;28;20966;-74
2023/01/01 01:18:40;;;;;;;17.97;7.90;;;17.00;99.90;;;;;;5048289;28;20482;-74
2023/01/01 01:21:09;;;;;;;8.77;5.30;;;16.90;99.90;;;;;;5047506;28;20473;-75
2023/01/01 01:23:36;;;;;;;14.17;8.30;;;16.90;99.90;;;;;;5048041;28;20499;-74
2023/01/01 01:26:10;;;;;;;16.60;7.80;;;16.90;99.90;;;;;;5047326;28;20485;-75
2023/01/01 01:28:40;;;;;;;11.20;6.50;;;16.90;99.90;;;;;;5049990;28;20540;-75
2023/01/01 01:31:10;;;;;;;8.70;5.27;;;16.90;99.90;;;;;;4998156;28;20460;-76
2023/01/01 01:33:37;;;;;;;8.23;6.27;;;16.90;99.90;;;;;;5042821;28;20566;-75
2023/01/01 01:36:06;;;;;;;9.60;5.47;;;16.90;99.90;;;;;;5062054;28;20454;-74
2023/01/01 01:38:34;;;;;;;8.57;6.23;;;16.80;99.90;;;;;;5058447;28;21146;-75
2023/01/01 01:41:02;;;;;;;7.17;5.10;;;16.80;99.90;;;;;;5050050;28;20553;-75
2023/01/01 01:43:53;;;;;;;10.70;5.00;;;16.80;99.90;;;;;;5048990;28;20454;-75
2023/01/01 01:46:25;;;;;;;7.77;5.07;;;16.80;99.90;;;;;;5048075;28;20961;-74
2023/01/01 01:48:55;;;;;;;9.70;5.70;;;16.90;99.90;;;;;;5052716;28;20479;-75
2023/01/01 01:51:33;;;;;;;12.53;7.37;;;16.90;99.90;;;;;;5042524;28;21014;-75
2023/01/01 01:54:05;;;;;;;13.63;5.77;;;16.80;99.90;;;;;;5052369;28;20482;-75
2023/01/01 01:56:38;;;;;;;7.00;5.77;;;16.70;99.90;;;;;;5045663;28;20482;-75
2023/01/01 01:59:06;;;;;;;9.20;5.10;;;16.70;99.90;;;;;;5048052;28;20582;-74
2023/01/01 02:01:33;;;;;;;7.23;6.23;;;16.60;99.90;;;;;;5043260;28;20458;-77
2023/01/01 02:04:02;;;;;;;6.77;4.10;;;16.60;99.90;;;;;;5045943;28;20550;-75
2023/01/01 02:06:31;;;;;;;5.37;3.30;;;16.50;99.90;;;;;;5021012;28;20460;-75
2023/01/01 02:09:03;;;;;;;6.93;4.20;;;16.60;99.90;;;;;;5011870;28;20508;-75
2023/01/01 02:11:31;;;;;;;8.07;4.57;;;16.60;99.90;;;;;;5043540;28;20469;-74
2023/01/01 02:14:00;;;;;;;2.43;2.20;;;16.60;99.90;;;;;;5044267;28;20491;-75
2023/01/01 02:16:36;;;;;;;4.20;3.57;;;16.50;99.90;;;;;;5052890;28;20523;-76
2023/01/01 02:19:12;;;;;;;6.57;3.70;;;16.50;99.90;;;;;;5054164;28;21058;-75
2023/01/01 02:21:55;;;;;;;5.00;2.93;;;16.40;99.90;;;;;;5043948;28;20488;-74
2023/01/01 02:24:39;;;;;;;4.53;2.83;;;16.40;99.90;;;;;;5038947;28;20459;-74
2023/01/01 02:27:15;;;;;;;4.33;2.53;;;16.40;99.90;;;;;;5044790;28;20491;-74
2023/01/01 02:29:51;;;;;;;3.47;2.10;;;16.30;99.90;;;;;;5048624;28;20559;-75
2023/01/01 02:32:25;;;;;;;13.70;3.60;;;16.30;99.90;;;;;;5046557;28;20465;-74
2023/01/01 02:34:58;;;;;;;2.90;2.60;;;16.30;99.90;;;;;;5046386;28;20458;-74
2023/01/01 02:37:28;;;;;;;3.13;1.77;;;16.30;99.90;;;;;;5046926;28;20496;-75
2023/01/01 02:39:58;;;;;;;2.23;1.80;;;16.30;99.90;;;;;;5048220;28;20466;-75
2023/01/01 02:42:28;;;;;;;6.63;2.23;;;16.20;99.90;;;;;;5049078;28;20482;-76
2023/01/01 02:44:59;;;;;;;2.40;1.70;;;16.20;99.90;;;;;;5048475;28;20455;-73
2023/01/01 02:47:28;;;;;;;19.77;2.20;;;16.20;99.90;;;;;;5044380;28;20486;-74
2023/01/01 02:49:59;;;;;;;4.30;1.80;;;16.20;99.90;;;;;;5044966;28;20489;-74
2023/01/01 02:52:56;;;;;;;2.60;2.40;;;16.20;99.90;;;;;;5052249;28;20549;-74
2023/01/01 02:55:39;;;;;;;2.27;1.63;;;16.20;99.90;;;;;;5053851;28;20550;-74
2023/01/01 03:01:11;;;;;;;2.53;1.70;;;16.20;99.90;;;;;;5045573;28;20448;-74
2023/01/01 03:03:41;;;;;;;2.33;1.30;;;16.20;99.90;;;;;;5038151;28;20653;-75
2023/01/01 03:06:25;;;;;;;2.40;1.30;;;16.20;99.90;;;;;;5049209;28;20982;-74
2023/01/01 03:08:59;;;;;;;1.63;1.03;;;16.10;99.90;;;;;;5043817;28;20482;-74
2023/01/01 03:11:35;;;;;;;2.57;1.43;;;16.10;99.90;;;;;;5051370;28;21008;-74
2023/01/01 03:14:08;;;;;;;2.20;1.33;;;16.10;99.90;;;;;;5046456;28;20481;-74
2023/01/01 03:16:40;;;;;;;7.70;1.40;;;16.10;99.90;;;;;;5044810;28;20540;-74
2023/01/01 03:19:11;;;;;;;3.30;1.40;;;16.00;99.90;;;;;;5046921;28;20483;-74
2023/01/01 03:21:42;;;;;;;2.03;1.30;;;16.10;99.90;;;;;;5040587;28;20455;-74
2023/01/01 03:24:13;;;;;;;1.97;1.50;;;16.10;99.90;;;;;;5010238;28;20458;-74
2023/01/01 03:26:41;;;;;;;4.70;1.77;;;16.10;99.90;;;;;;5042793;28;20524;-74
2023/01/01 03:29:11;;;;;;;1.40;1.07;;;16.00;99.90;;;;;;5046094;28;20565;-74
2023/01/01 03:31:43;;;;;;;4.33;1.83;;;16.10;99.90;;;;;;5043543;28;20549;-75
2023/01/01 03:34:14;;;;;;;3.27;1.40;;;16.10;99.90;;;;;;5038687;28;20486;-75
2023/01/01 03:36:46;;;;;;;1.67;1.40;;;16.00;99.90;;;;;;5052671;28;20459;-74
2023/01/01 03:39:18;;;;;;;5.83;1.57;;;16.00;99.90;;;;;;5050796;28;20873;-74
2023/01/01 03:41:50;;;;;;;9.90;1.10;;;15.90;99.90;;;;;;5046187;28;20553;-74
2023/01/01 03:44:24;;;;;;;2.00;1.17;;;15.90;99.90;;;;;;5047775;28;20458;-74
2023/01/01 03:46:55;;;;;;;2.23;1.17;;;15.90;99.90;;;;;;5040001;28;20457;-75
2023/01/01 03:49:24;;;;;;;1.87;0.97;;;15.90;99.90;;;;;;5037437;28;20959;-75
2023/01/01 03:52:01;;;;;;;5.00;1.67;;;15.90;99.90;;;;;;5049054;28;20529;-73
2023/01/01 03:54:38;;;;;;;3.07;1.57;;;15.90;99.90;;;;;;5047970;28;20481;-74
2023/01/01 03:57:11;;;;;;;2.10;1.77;;;15.90;99.90;;;;;;5044831;28;20532;-74
2023/01/01 03:59:43;;;;;;;1.50;1.20;;;16.00;99.90;;;;;;5047158;28;21527;-74
2023/01/01 04:02:13;;;;;;;1.80;1.20;;;16.00;99.90;;;;;;5041574;28;20574;-75
2023/01/01 04:04:41;;;;;;;1.57;0.93;;;16.00;99.90;;;;;;5044337;28;20463;-74
2023/01/01 04:07:08;;;;;;;8.93;1.70;;;16.00;99.90;;;;;;5053133;28;20508;-74
2023/01/01 04:09:37;;;;;;;2.83;1.23;;;16.00;99.90;;;;;;5045424;28;20618;-74
2023/01/01 04:12:05;;;;;;;6.00;1.37;;;15.90;99.90;;;;;;5046024;28;20465;-74
2023/01/01 04:14:34;;;;;;;2.90;1.30;;;15.90;99.90;;;;;;5049528;28;20490;-74
2023/01/01 04:17:03;;;;;;;3.50;1.30;;;15.90;99.90;;;;;;5045480;28;20515;-75
2023/01/01 04:19:32;;;;;;;3.07;1.00;;;15.90;99.90;;;;;;5047467;28;20464;-74
2023/01/01 04:21:59;;;;;;;1.20;0.80;;;15.90;99.90;;;;;;5046237;28;20467;-74
2023/01/01 04:24:26;;;;;;;1.30;1.00;;;15.90;99.90;;;;;;5042901;28;20460;-74
2023/01/01 04:26:54;;;;;;;3.13;1.40;;;15.90;99.90;;;;;;5044280;28;20475;-74
2023/01/01 04:29:22;;;;;;;8.17;1.43;;;15.90;99.90;;;;;;5046869;28;20546;-74
2023/01/01 04:31:49;;;;;;;2.70;1.10;;;15.90;99.90;;;;;;5047487;28;20481;-74
2023/01/01 04:34:16;;;;;;;2.37;1.53;;;15.90;99.90;;;;;;5042719;28;20497;-74
2023/01/01 04:36:45;;;;;;;1.43;1.10;;;15.80;99.90;;;;;;5043232;28;20583;-74
2023/01/01 04:39:12;;;;;;;1.60;1.20;;;15.80;99.90;;;;;;5047103;28;20482;-73
2023/01/01 04:41:39;;;;;;;1.50;1.23;;;15.90;99.90;;;;;;5041637;28;20457;-74
2023/01/01 04:44:06;;;;;;;2.87;1.53;;;15.90;99.90;;;;;;5049555;28;20820;-74
2023/01/01 04:46:33;;;;;;;2.43;0.93;;;15.90;99.90;;;;;;5043221;28;20481;-74
2023/01/01 04:49:00;;;;;;;2.37;1.07;;;15.90;99.90;;;;;;5050539;28;20479;-74
2023/01/01 04:51:26;;;;;;;2.03;1.07;;;15.80;99.90;;;;;;5043940;28;20473;-74
2023/01/01 04:53:55;;;;;;;2.20;1.10;;;15.90;99.90;;;;;;5045966;28;20570;-74
2023/01/01 04:56:22;;;;;;;6.63;3.03;;;15.80;99.90;;;;;;5052720;28;20458;-74
2023/01/01 04:58:50;;;;;;;1.40;1.17;;;15.80;99.90;;;;;;5060753;28;20498;-74
2023/01/01 05:01:19;;;;;;;2.50;0.93;;;15.80;99.90;;;;;;5041116;28;21332;-74
2023/01/01 05:03:47;;;;;;;2.73;1.33;;;15.80;99.90;;;;;;5051090;28;20485;-74
2023/01/01 05:06:14;;;;;;;1.27;1.10;;;15.80;99.90;;;;;;5052431;28;21025;-74
2023/01/01 05:08:44;;;;;;;3.17;1.10;;;15.80;99.90;;;;;;5052566;28;20584;-74
2023/01/01 05:11:14;;;;;;;2.73;1.27;;;15.80;99.90;;;;;;5047636;28;20490;-74
2023/01/01 05:13:44;;;;;;;5.20;1.80;;;15.80;99.90;;;;;;5054154;28;20590;-74
2023/01/01 05:16:14;;;;;;;1.43;1.30;;;15.80;99.90;;;;;;5048518;28;20501;-73
2023/01/01 05:18:44;;;;;;;5.53;1.73;;;15.80;99.90;;;;;;5054922;28;20504;-74
2023/01/01 05:21:12;;;;;;;2.87;1.50;;;15.80;99.90;;;;;;5047420;28;20707;-74
2023/01/01 05:23:43;;;;;;;7.30;1.63;;;15.70;99.90;;;;;;5049065;28;20560;-73
2023/01/01 05:26:12;;;;;;;2.20;1.60;;;15.70;99.90;;;;;;5046282;28;20544;-74
2023/01/01 05:28:39;;;;;;;5.87;1.57;;;15.70;99.90;;;;;;5051198;28;20513;-74
2023/01/01 05:31:08;;;;;;;2.47;1.30;;;15.60;99.90;;;;;;5044596;28;21079;-74
2023/01/01 05:33:36;;;;;;;3.40;2.30;;;15.60;99.90;;;;;;5049153;28;20568;-74
2023/01/01 05:36:04;;;;;;;1.63;1.53;;;15.60;99.90;;;;;;5041803;28;20466;-73
2023/01/01 05:38:31;;;;;;;1.50;1.40;;;15.60;99.90;;;;;;5061428;28;20550;-73
2023/01/01 05:40:58;;;;;;;2.67;1.63;;;15.60;99.90;;;;;;5047681;28;20581;-74
2023/01/01 05:43:26;;;;;;;2.50;1.23;;;15.60;99.90;;;;;;5044503;28;20451;-74
2023/01/01 05:46:02;;;;;;;5.57;2.00;;;15.60;99.90;;;;;;5042759;28;20458;-74
2023/01/01 05:48:30;;;;;;;3.80;1.13;;;15.60;99.90;;;;;;5042318;28;20477;-74
2023/01/01 05:51:02;;;;;;;2.67;1.60;;;15.60;99.90;;;;;;5047410;28;20509;-74
2023/01/01 05:53:30;;;;;;;1.83;1.50;;;15.60;99.90;;;;;;5050798;28;20487;-73
2023/01/01 05:55:57;;;;;;;1.53;0.90;;;15.60;99.90;;;;;;5052223;28;20467;-74
2023/01/01 05:58:26;;;;;;;1.13;1.03;;;15.60;99.90;;;;;;5037568;28;20960;-74
2023/01/01 06:00:53;;;;;;;9.47;1.27;;;15.50;99.90;;;;;;5040289;28;20962;-74
2023/01/01 06:03:22;;;;;;;1.53;0.97;;;15.60;99.90;;;;;;5045138;28;20474;-74
2023/01/01 06:05:49;;;;;;;3.10;1.20;;;15.60;99.90;;;;;;5050479;28;20473;-73
2023/01/01 06:08:16;;;;;;;3.63;1.60;;;15.50;99.90;;;;;;5038008;28;20493;-74
2023/01/01 06:10:43;;;;;;;1.70;1.03;;;15.40;99.90;;;;;;5039259;28;20558;-73
2023/01/01 06:13:09;;;;;;;1.73;1.13;;;15.40;99.90;;;;;;5045623;28;20469;-74
2023/01/01 06:15:38;;;;;;;2.30;1.30;;;15.40;99.90;;;;;;5048680;28;20483;-74
2023/01/01 06:18:04;;;;;;;2.97;1.33;;;15.40;99.90;;;;;;5042334;28;20475;-73
2023/01/01 06:20:31;;;;;;;11.13;1.40;;;15.30;99.90;;;;;;5042799;28;20628;-73
2023/01/01 06:22:58;;;;;;;2.93;1.23;;;15.40;99.90;;;;;;5047696;28;20465;-73
2023/01/01 06:25:25;;;;;;;2.43;2.00;;;15.40;99.90;;;;;;5048729;28;20543;-73
2023/01/01 06:27:52;;;;;;;1.67;1.10;;;15.30;99.90;;;;;;5041129;28;20484;-74
2023/01/01 06:30:19;;;;;;;1.47;1.00;;;15.20;99.90;;;;;;5045950;28;20470;-74
2023/01/01 06:32:47;;;;;;;4.30;0.97;;;15.20;99.90;;;;;;5037737;28;20468;-74
2023/01/01 06:35:14;;;;;;;1.53;1.10;;;15.20;99.90;;;;;;5042247;28;20949;-74
2023/01/01 06:37:41;;;;;;;4.33;1.27;;;15.30;99.90;;;;;;5047238;28;20556;-74
2023/01/01 06:40:12;;;;;;;4.07;1.40;;;15.30;99.90;;;;;;5043968;28;20552;-74
2023/01/01 06:42:38;;;;;;;3.20;1.73;;;15.30;99.90;;;;;;5032795;28;20505;-74
2023/01/01 06:45:06;;;;;;;3.33;1.10;;;15.30;99.90;;;;;;5046790;28;20482;-74
2023/01/01 06:47:34;;;;;;;1.70;1.00;;;15.30;99.90;;;;;;5044934;28;20565;-74
2023/01/01 06:50:04;;;;;;;2.03;1.00;;;15.30;99.90;;;;;;5040557;28;20467;-74
2023/01/01 06:52:31;;;;;;;2.83;1.10;;;15.30;99.90;;;;;;5045060;28;20474;-74
2023/01/01 06:55:00;;;;;;;2.17;1.50;;;15.30;99.90;;;;;;5045586;28;20500;-74
2023/01/01 06:57:27;;;;;;;2.27;1.40;;;15.30;99.90;;;;;;5039260;28;20488;-75
2023/01/01 06:59:54;;;;;;;2.07;1.43;;;15.40;99.90;;;;;;5042574;28;20472;-74
2023/01/01 07:02:21;;;;;;;4.23;1.53;;;15.40;99.90;;;;;;5046438;28;20531;-74
2023/01/01 07:04:48;;;;;;;3.30;2.03;;;15.50;99.90;;;;;;5048792;28;20474;-74
2023/01/01 07:07:16;;;;;;;5.40;1.60;;;15.40;99.90;;;;;;5044944;28;20597;-74
2023/01/01 07:09:43;;;;;;;2.50;1.23;;;15.30;99.90;;;;;;5040063;28;20656;-74
2023/01/01 07:12:10;;;;;;;2.83;1.60;;;15.40;99.90;;;;;;5047315;28;20526;-74
2023/01/01 07:14:37;;;;;;;4.07;1.53;;;15.30;99.90;;;;;;5039906;28;20568;-73
2023/01/01 07:17:04;;;;;;;3.23;2.10;;;15.40;99.90;;;;;;5044733;28;20460;-74
2023/01/01 07:19:31;;;;;;;2.20;1.80;;;15.30;99.90;;;;;;5043687;28;20463;-74
2023/01/01 07:21:57;;;;;;;2.30;2.10;;;15.20;99.90;;;;;;5044116;28;20553;-73
2023/01/01 07:24:26;;;;;;;4.80;1.30;;;15.10;99.90;;;;;;5049691;28;20545;-73
2023/01/01 07:26:53;;;;;;;1.10;0.80;;;15.10;99.90;;;;;;5050942;28;20514;-74
2023/01/01 07:29:20;;;;;;;1.93;1.13;;;15.10;99.90;;;;;;5049809;28;20445;-74
2023/01/01 07:31:47;;;;;;;3.87;1.40;;;15.10;99.90;;;;;;5038565;28;20542;-74
2023/01/01 07:34:17;;;;;;;2.00;1.10;;;15.10;99.90;;;;;;5048937;28;20510;-74
2023/01/01 07:36:45;;;;;;;2.20;1.47;;;15.00;99.90;;;;;;5039879;28;20449;-73
2023/01/01 07:39:12;;;;;;;1.70;1.40;;;15.00;99.90;;;;;;5039168;28;20842;-74
2023/01/01 07:41:41;;;;;;;5.73;1.37;;;15.00;99.90;;;;;;5041244;28;20462;-74
2023/01/01 07:44:08;;;;;;;2.50;1.37;;;15.00;99.90;;;;;;5041654;28;20544;-73
2023/01/01 07:46:36;;;;;;;2.00;1.27;;;14.90;99.90;;;;;;5038907;28;20462;-73
2023/01/01 07:49:03;;;;;;;1.73;1.27;;;14.70;99.90;;;;;;5040202;28;20489;-73
2023/01/01 07:51:30;;;;;;;2.70;1.10;;;14.70;99.90;;;;;;5048962;28;20521;-73
2023/01/01 07:53:57;;;;;;;2.17;1.20;;;14.60;99.90;;;;;;5046138;28;20554;-73
2023/01/01 07:56:24;;;;;;;2.20;1.33;;;14.50;99.90;;;;;;5048592;28;20472;-73
2023/01/01 07:58:52;;;;;;;2.53;1.20;;;14.30;99.90;;;;;;5051432;28;20635;-73
2023/01/01 08:01:19;;;;;;;3.50;1.90;;;14.20;99.90;;;;;;5047407;28;20512;-73
2023/01/01 08:03:51;;;;;;;2.40;1.80;;;14.20;99.90;;;;;;5049651;28;20482;-73
2023/01/01 08:06:18;;;;;;;3.77;1.60;;;14.10;99.90;;;;;;5048090;28;20454;-73
2023/01/01 08:08:45;;;;;;;2.03;1.20;;;14.10;99.90;;;;;;5049026;28;20474;-73
2023/01/01 08:11:12;;;;;;;4.73;1.63;;;14.10;99.90;;;;;;5050993;28;20557;-73
2023/01/01 08:13:39;;;;;;;1.43;1.10;;;14.00;99.90;;;;;;5044272;28;20964;-73
2023/01/01 08:16:08;;;;;;;1.83;1.20;;;14.00;99.90;;;;;;5048691;28;20562;-73
2023/01/01 08:18:36;;;;;;;4.17;1.73;;;14.10;99.90;;;;;;5013623;28;20477;-73
2023/01/01 08:21:04;;;;;;;2.13;1.10;;;14.20;99.90;;;;;;5046710;28;20453;-73
2023/01/01 08:23:32;;;;;;;1.53;1.20;;;14.10;99.90;;;;;;5042203;28;20990;-74
2023/01/01 08:26:00;;;;;;;2.93;1.90;;;14.00;99.90;;;;;;5043626;28;20460;-74
2023/01/01 08:28:27;;;;;;;4.97;1.53;;;14.00;99.90;;;;;;5045556;28;20485;-73
2023/01/01 08:30:55;;;;;;;3.87;2.60;;;14.00;99.90;;;;;;5049053;28;20438;-73
2023/01/01 08:33:25;;;;;;;1.53;1.33;;;14.00;99.90;;;;;;5046570;28;20467;-75
2023/01/01 08:35:52;;;;;;;1.67;1.30;;;14.00;99.90;;;;;;5043528;28;20486;-73
2023/01/01 08:38:19;;;;;;;3.80;1.60;;;14.00;99.90;;;;;;5048957;28;20548;-73
2023/01/01 08:40:46;;;;;;;1.30;1.10;;;14.00;99.90;;;;;;5049432;28;20464;-73
2023/01/01 08:43:13;;;;;;;3.13;1.83;;;14.00;99.90;;;;;;5051198;28;20957;-73
2023/01/01 08:45:40;;;;;;;3.90;1.40;;;14.10;99.90;;;;;;5038398;28;20467;-73
2023/01/01 08:48:07;;;;;;;4.60;1.87;;;14.20;99.90;;;;;;5043447;28;20481;-73
2023/01/01 08:50:35;;;;;;;2.07;1.27;;;14.30;99.90;;;;;;5006467;28;20846;-74
2023/01/01 08:53:02;;;;;;;4.23;1.40;;;14.30;99.90;;;;;;5049357;28;20461;-73
2023/01/01 08:55:30;;;;;;;3.77;1.30;;;14.30;99.90;;;;;;5042043;28;20573;-73
2023/01/01 08:57:57;;;;;;;2.30;1.43;;;14.30;99.90;;;;;;5026136;28;21067;-74
2023/01/01 09:00:23;;;;;;;1.20;1.00;;;14.30;99.90;;;;;;5045673;28;20493;-73
2023/01/01 09:02:50;;;;;;;2.37;1.80;;;14.40;99.90;;;;;;5048122;28;20529;-73
2023/01/01 09:05:17;;;;;;;6.07;1.60;;;14.40;99.90;;;;;;5038528;28;20483;-74
2023/01/01 09:07:45;;;;;;;1.50;1.20;;;14.40;99.90;;;;;;5047600;28;20485;-74
2023/01/01 09:10:12;;;;;;;1.53;1.30;;;14.40;99.90;;;;;;5032416;28;20429;-73
2023/01/01 09:12:39;;;;;;;1.00;0.80;;;14.40;99.90;;;;;;5033366;28;20936;-74
2023/01/01 09:15:13;;;;;;;7.13;2.90;;;14.50;99.90;;;;;;5049330;28;21042;-74
2023/01/01 09:17:40;;;;;;;3.77;1.33;;;14.60;99.90;;;;;;5046887;28;20498;-73
2023/01/01 09:20:08;;;;;;;4.77;1.20;;;14.70;99.90;;;;;;5038678;28;20476;-73
2023/01/01 09:22:35;;;;;;;3.77;1.63;;;14.70;99.90;;;;;;5039154;28;21060;-74
2023/01/01 09:25:03;;;;;;;2.37;1.27;;;14.70;99.90;;;;;;5048935;28;20465;-73
2023/01/01 09:27:30;;;;;;;1.97;1.63;;;14.60;99.90;;;;;;5047627;28;20573;-73
2023/01/01 09:29:57;;;;;;;3.87;1.83;;;14.70;99.90;;;;;;5038851;28;20969;-73
2023/01/01 09:32:24;;;;;;;2.07;1.30;;;14.80;99.90;;;;;;5043186;28;20467;-73
2023/01/01 09:34:51;;;;;;;3.97;1.30;;;14.80;99.90;;;;;;5047003;28;20516;-73
2023/01/01 09:37:19;;;;;;;3.63;1.20;;;14.70;99.90;;;;;;5038625;28;20555;-74
2023/01/01 09:39:46;;;;;;;2.33;1.27;;;14.80;99.90;;;;;;5041202;28;20461;-74
2023/01/01 09:42:27;;;;;;;8.83;1.43;;;14.80;99.90;;;;;;5048723;28;20549;-74
2023/01/01 09:45:16;;;;;;;2.60;1.40;;;14.70;99.90;;;;;;5044258;28;20547;-74
2023/01/01 09:47:46;;;;;;;2.93;1.33;;;14.80;99.90;;;;;;5051072;28;21367;-74
2023/01/01 09:50:18;;;;;;;4.50;1.83;;;14.80;99.90;;;;;;5046138;28;21090;-74
2023/01/01 09:52:52;;;;;;;4.50;1.47;;;14.80;99.90;;;;;;5054377;28;20548;-74
2023/01/01 09:55:26;;;;;;;1.87;1.10;;;14.80;99.90;;;;;;5044049;28;20574;-74
2023/01/01 09:57:55;;;;;;;4.03;1.40;;;14.80;99.90;;;;;;5049253;28;20472;-74
2023/01/01 10:00:23;;;;;;;6.03;1.60;;;14.80;99.90;;;;;;5051574;28;20494;-74
2023/01/01 10:03:17;;;;;;;4.10;1.67;;;14.80;99.90;;;;;;5047764;28;20502;-74
2023/01/01 10:05:52;;;;;;;1.80;1.13;;;14.80;99.90;;;;;;5023261;28;20490;-73
2023/01/01 10:08:29;;;;;;;5.73;1.43;;;14.90;99.90;;;;;;5043577;28;20549;-74
2023/01/01 10:11:05;;;;;;;4.80;1.70;;;14.90;99.90;;;;;;5049672;28;20851;-74
2023/01/01 10:13:39;;;;;;;4.10;1.67;;;14.90;99.90;;;;;;5047651;28;20529;-73
2023/01/01 10:16:14;;;;;;;6.73;1.87;;;14.90;99.90;;;;;;5050516;28;20560;-74
2023/01/01 10:18:42;;;;;;;2.93;1.60;;;15.00;99.90;;;;;;5050519;28;20508;-74
2023/01/01 10:21:14;;;;;;;3.03;1.37;;;14.90;99.90;;;;;;5042152;28;20508;-74
2023/01/01 10:23:44;;;;;;;3.07;2.80;;;15.00;99.90;;;;;;5037418;28;20470;-74
2023/01/01 10:26:15;;;;;;;2.70;1.40;;;14.90;99.90;;;;;;5045998;28;20461;-74
2023/01/01 10:28:51;;;;;;;2.40;1.60;;;15.00;99.90;;;;;;5049096;28;20482;-74
2023/01/01 10:31:25;;;;;;;1.47;1.00;;;14.90;99.90;;;;;;5053319;28;20433;-74
2023/01/01 10:33:52;;;;;;;5.40;1.57;;;15.00;99.90;;;;;;5047120;28;21133;-74
2023/01/01 10:36:19;;;;;;;1.37;1.00;;;14.90;99.90;;;;;;5047430;28;20920;-74
2023/01/01 10:38:47;;;;;;;1.57;1.47;;;14.90;99.90;;;;;;5044066;28;20516;-74
2023/01/01 10:41:16;;;;;;;2.70;1.37;;;14.90;99.90;;;;;;5039733;28;20462;-74
2023/01/01 10:43:45;;;;;;;2.00;1.20;;;14.90;99.90;;;;;;5040392;28;20466;-74
2023/01/01 10:46:15;;;;;;;4.17;1.37;;;15.00;99.90;;;;;;5045313;28;20541;-74
2023/01/01 10:49:09;;;;;;;3.07;1.50;;;15.10;99.90;;;;;;5040849;28;20576;-74
2023/01/01 10:51:42;;;;;;;1.33;0.97;;;15.00;99.90;;;;;;5036875;28;20468;-74
2023/01/01 10:54:31;;;;;;;6.57;1.87;;;15.10;99.90;;;;;;5041980;28;20521;-74
2023/01/01 10:56:59;;;;;;;1.60;1.10;;;15.10;99.90;;;;;;5045038;28;20510;-74
2023/01/01 10:59:39;;;;;;;5.10;1.90;;;15.10;99.90;;;;;;5039703;28;20477;-74
2023/01/01 11:02:19;;;;;;;1.97;1.87;;;15.20;99.90;;;;;;5038186;28;20488;-75
2023/01/01 11:04:52;;;;;;;1.60;1.40;;;15.20;99.90;;;;;;5039200;28;20493;-74
2023/01/01 11:07:26;;;;;;;4.37;2.13;;;15.10;99.90;;;;;;5035662;28;20573;-73
2023/01/01 11:09:58;;;;;;;2.00;1.73;;;15.20;99.90;;;;;;5041153;28;20529;-74
2023/01/01 11:12:31;;;;;;;2.00;1.30;;;15.20;99.90;;;;;;5038216;28;20747;-73
2023/01/01 11:15:05;;;;;;;3.63;1.80;;;15.20;99.90;;;;;;5040523;28;20961;-74
2023/01/01 11:17:34;;;;;;;4.50;2.37;;;15.20;99.90;;;;;;5041393;28;20488;-74
2023/01/01 11:20:02;;;;;;;2.87;2.10;;;15.30;99.90;;;;;;5040001;28;21051;-74
2023/01/01 11:22:39;;;;;;;2.00;1.30;;;15.30;99.90;;;;;;5010143;28;20683;-74
2023/01/01 11:25:19;;;;;;;3.97;1.80;;;15.40;99.90;;;;;;5044645;28;20525;-74
2023/01/01 11:27:46;;;;;;;2.03;1.67;;;15.40;99.90;;;;;;5042847;28;20565;-74
2023/01/01 11:30:24;;;;;;;2.07;1.30;;;15.40;99.90;;;;;;5038987;28;20717;-74
2023/01/01 11:32:56;;;;;;;2.03;1.47;;;15.40;99.90;;;;;;5040959;28;20569;-74
2023/01/01 11:35:25;;;;;;;4.40;1.20;;;15.40;99.90;;;;;;5043515;28;20946;-74
2023/01/01 11:37:54;;;;;;;2.13;1.30;;;15.60;99.90;;;;;;5044766;28;20581;-74
2023/01/01 11:40:24;;;;;;;2.90;1.37;;;15.60;99.90;;;;;;5007794;28;20619;-73
2023/01/01 11:42:54;;;;;;;2.13;1.53;;;15.60;99.90;;;;;;5044115;28;20583;-74
2023/01/01 11:45:25;;;;;;;5.97;1.70;;;15.70;99.90;;;;;;5043058;28;20547;-74
2023/01/01 11:47:56;;;;;;;3.97;1.97;;;15.70;99.90;;;;;;5034531;28;20562;-73
2023/01/01 11:50:30;;;;;;;1.20;1.07;;;15.70;99.90;;;;;;5039377;28;20481;-74
2023/01/01 11:53:16;;;;;;;2.73;1.40;;;15.80;99.90;;;;;;5041916;28;20548;-74
2023/01/01 11:55:46;;;;;;;1.57;1.40;;;15.70;99.90;;;;;;5045837;28;20556;-74
2023/01/01 11:58:21;;;;;;;5.47;1.77;;;15.80;99.90;;;;;;5043018;28;20482;-74
2023/01/01 12:00:54;;;;;;;3.10;1.80;;;15.80;99.90;;;;;;5046949;28;20992;-74
2023/01/01 12:03:25;;;;;;;1.67;1.17;;;15.80;99.90;;;;;;5040447;28;20484;-74
2023/01/01 12:05:59;;;;;;;2.27;1.57;;;15.60;99.90;;;;;;5050247;28;20467;-73
2023/01/01 12:08:35;;;;;;;6.13;2.30;;;15.50;99.90;;;;;;5045965;28;20492;-74
2023/01/01 12:11:11;;;;;;;7.80;2.03;;;15.50;99.90;;;;;;5041913;28;20520;-74
2023/01/01 12:13:46;;;;;;;2.50;1.43;;;15.40;99.90;;;;;;5046441;28;20491;-74
2023/01/01 12:16:20;;;;;;;5.73;1.27;;;15.40;99.90;;;;;;5050299;28;20500;-75
2023/01/01 12:18:53;;;;;;;4.63;1.97;;;15.40;99.90;;;;;;5047945;28;20886;-74
2023/01/01 12:21:25;;;;;;;3.03;1.40;;;15.40;99.90;;;;;;5044415;28;20625;-73
2023/01/01 12:23:52;;;;;;;4.33;1.30;;;15.30;99.90;;;;;;5050510;28;20514;-74
2023/01/01 12:26:24;;;;;;;2.50;1.33;;;15.30;99.90;;;;;;5048304;28;20523;-73
2023/01/01 12:29:19;;;;;;;2.33;0.90;;;15.40;99.90;;;;;;5046965;28;20619;-73
2023/01/01 12:31:58;;;;;;;1.97;1.30;;;15.40;99.90;;;;;;5049779;28;20472;-73
2023/01/01 12:34:35;;;;;;;2.23;2.03;;;15.30;99.90;;;;;;5043250;28;20474;-73
2023/01/01 12:37:11;;;;;;;1.73;1.53;;;15.40;99.90;;;;;;5046566;28;20497;-75
2023/01/01 12:40:26;;;;;;;1.57;1.10;;;15.50;99.90;;;;;;5043283;28;20540;-74
2023/01/01 12:43:01;;;;;;;4.13;1.17;;;15.50;99.90;;;;;;5049830;28;20475;-74
2023/01/01 12:46:00;;;;;;;1.97;1.20;;;15.40;99.90;;;;;;5045596;28;20854;-74
2023/01/01 12:48:50;;;;;;;2.57;1.30;;;15.30;99.90;;;;;;5037898;28;20574;-73
2023/01/01 12:51:30;;;;;;;1.67;1.07;;;15.30;99.90;;;;;;5030366;28;21025;-74
2023/01/01 12:54:24;;;;;;;3.43;1.40;;;15.20;99.90;;;;;;5048976;28;20574;-73
2023/01/01 12:56:57;;;;;;;5.53;1.80;;;15.30;99.90;;;;;;5044458;28;20555;-73
2023/01/01 12:59:28;;;;;;;1.93;1.03;;;15.40;99.90;;;;;;5045427;28;20612;-74
2023/01/01 13:01:59;;;;;;;2.33;1.20;;;15.40;99.90;;;;;;5048048;28;20462;-73
2023/01/01 13:04:28;;;;;;;3.73;1.70;;;15.30;99.90;;;;;;5053477;28;20500;-73
2023/01/01 13:07:02;;;;;;;8.33;1.60;;;15.40;99.90;;;;;;5051668;28;20760;-73
2023/01/01 13:09:33;;;;;;;2.03;1.43;;;15.40;99.90;;;;;;5053684;28;20823;-73